Matson, Missouri
Current Conditions -  °F | °C
As of 2:54 AM on Sunday 21 Dec 2014 (Local Time) from KSUS Reporting Station
Overcast Overcast  
Wind Chill: 41°   Ceiling: 2400
Heat Index: 41°   Visibility: 10mi
Dew Point: 34°   Wind: 3mph
Humidity: 76%   Direction: 150°SSE
Pressure: 30.2"   Gusts: NA
Location:  38.6484°N, 90.8208°W
Report Text: KSUS 210854Z AUTO 15003KT 10SM OVC024 05/01 A3020 RMK AO2 SLP232 T00500011 56009
Loading
Personal Weather Stations






























Interactive Weather Map New forecast layout! Learn more

10-Day Weather Forecast

Advertisements
Track Severe Weather on mobile